createdAt,value
2023-02-21T00:01:56.710Z,7.74
2023-02-21T00:04:04.392Z,7.74
2023-02-21T00:06:12.150Z,7.71
2023-02-21T00:08:24.200Z,7.68
2023-02-21T00:10:34.806Z,7.65
2023-02-21T00:12:42.454Z,7.62
2023-02-21T00:14:52.301Z,7.60
2023-02-21T00:16:59.649Z,7.62
2023-02-21T00:19:07.341Z,7.62
2023-02-21T00:21:15.062Z,7.60
2023-02-21T00:23:22.975Z,7.64
2023-02-21T00:25:30.537Z,7.66
2023-02-21T00:27:41.430Z,7.64
2023-02-21T00:29:49.143Z,7.63
2023-02-21T00:31:56.634Z,7.66
2023-02-21T00:34:04.427Z,7.62
2023-02-21T00:36:11.939Z,7.61
2023-02-21T00:38:20.241Z,7.56
2023-02-21T00:40:29.922Z,7.55
2023-02-21T00:42:40.309Z,7.50
2023-02-21T00:44:47.716Z,7.49
2023-02-21T00:46:55.504Z,7.46
2023-02-21T00:49:02.974Z,7.47
2023-02-21T00:51:10.695Z,7.45
2023-02-21T00:53:18.093Z,7.46
2023-02-21T00:55:25.858Z,7.45
2023-02-21T00:57:33.722Z,7.47
2023-02-21T00:59:44.437Z,7.48
2023-02-21T01:01:52.195Z,7.47
2023-02-21T01:04:00.270Z,7.48
2023-02-21T01:06:09.160Z,7.49
2023-02-21T01:08:16.884Z,7.48
2023-02-21T01:10:24.676Z,7.47
2023-02-21T01:12:32.108Z,7.48
2023-02-21T01:14:40.016Z,7.49
2023-02-21T01:16:50.067Z,7.50
2023-02-21T01:18:57.981Z,7.50
2023-02-21T01:21:05.517Z,7.47
2023-02-21T01:23:13.317Z,7.49
2023-02-21T01:27:51.343Z,7.54
2023-02-21T01:29:59.014Z,7.55
2023-02-21T01:32:09.565Z,7.54
2023-02-21T01:34:18.331Z,7.54
2023-02-21T01:36:26.934Z,7.56
2023-02-21T01:38:34.482Z,7.58
2023-02-21T01:40:55.544Z,7.60
2023-02-21T01:43:03.101Z,7.61
2023-02-21T01:45:54.191Z,7.62
2023-02-21T01:48:04.341Z,7.62
2023-02-21T01:50:13.351Z,7.63
2023-02-21T01:52:21.160Z,7.69
2023-02-21T01:54:33.832Z,7.68
2023-02-21T01:56:41.814Z,7.69
2023-02-21T01:58:51.016Z,7.71
2023-02-21T02:00:59.795Z,7.73
2023-02-21T02:03:13.518Z,7.80
2023-02-21T02:05:24.549Z,7.83
2023-02-21T02:07:31.956Z,7.83
2023-02-21T02:09:39.934Z,7.84
2023-02-21T02:12:02.171Z,7.85
2023-02-21T02:14:11.722Z,7.86
2023-02-21T02:16:11.967Z,7.90
2023-02-21T02:18:35.633Z,7.91
2023-02-21T02:21:00.281Z,7.95
2023-02-21T02:23:17.411Z,7.96
2023-02-21T02:25:24.209Z,8.01
2023-02-21T02:27:55.182Z,8.03
2023-02-21T02:30:18.783Z,8.05
2023-02-21T02:32:34.636Z,8.09
2023-02-21T02:34:58.551Z,8.16
2023-02-21T02:36:59.706Z,8.15
2023-02-21T02:39:03.021Z,8.18
2023-02-21T02:41:05.139Z,8.21
2023-02-21T02:43:11.510Z,8.20
2023-02-21T02:45:14.098Z,8.21
2023-02-21T02:47:14.019Z,8.20
2023-02-21T02:49:12.207Z,8.22
2023-02-21T02:51:12.391Z,8.17
2023-02-21T02:53:07.709Z,8.14
2023-02-21T02:55:04.431Z,8.13
2023-02-21T02:56:59.595Z,8.09
2023-02-21T02:58:57.813Z,8.07
2023-02-21T03:01:03.601Z,8.05
2023-02-21T03:03:33.083Z,8.03
2023-02-21T03:05:42.550Z,8.10
2023-02-21T03:07:48.215Z,8.10
2023-02-21T03:09:55.275Z,8.13
2023-02-21T03:11:59.143Z,8.18
2023-02-21T03:14:00.788Z,8.20
2023-02-21T03:16:03.530Z,8.22
2023-02-21T03:18:04.563Z,8.22
2023-02-21T03:20:02.652Z,8.21
2023-02-21T03:22:01.538Z,8.26
2023-02-21T03:24:03.479Z,8.26
2023-02-21T03:26:01.919Z,8.33
2023-02-21T03:27:58.120Z,8.36
2023-02-21T03:29:56.782Z,8.36
2023-02-21T03:32:00.726Z,8.39
2023-02-21T03:34:09.577Z,8.44
2023-02-21T03:36:19.299Z,8.44
2023-02-21T03:38:19.875Z,8.42
2023-02-21T03:40:30.561Z,8.46
2023-02-21T03:42:27.864Z,8.45
2023-02-21T03:44:22.849Z,8.48
2023-02-21T03:46:18.438Z,8.48
2023-02-21T03:48:17.665Z,8.47
2023-02-21T03:50:18.731Z,8.48
2023-02-21T03:52:15.354Z,8.49
2023-02-21T03:54:10.365Z,8.50
2023-02-21T03:56:08.959Z,8.50
2023-02-21T03:58:04.023Z,8.54
2023-02-21T03:59:59.108Z,8.54
2023-02-21T04:01:54.453Z,8.55
2023-02-21T04:03:49.537Z,8.57
2023-02-21T04:05:44.759Z,8.57
2023-02-21T04:07:40.136Z,8.60
2023-02-21T04:09:35.132Z,8.57
2023-02-21T04:11:34.018Z,8.56
2023-02-21T04:13:29.279Z,8.58
2023-02-21T04:15:24.361Z,8.60
2023-02-21T04:17:19.920Z,8.57
2023-02-21T04:19:15.020Z,8.59
2023-02-21T04:21:10.420Z,8.59
2023-02-21T04:23:05.401Z,8.62
2023-02-21T04:25:01.024Z,8.58
2023-02-21T04:26:58.859Z,8.62
2023-02-21T04:28:54.468Z,8.62
2023-02-21T04:30:49.423Z,8.59
2023-02-21T04:32:44.497Z,8.60
2023-02-21T04:34:39.810Z,8.61
2023-02-21T04:36:34.838Z,8.60
2023-02-21T04:38:30.124Z,8.57
2023-02-21T04:40:25.303Z,8.56
2023-02-21T04:42:23.299Z,8.57
2023-02-21T04:44:18.717Z,8.55
2023-02-21T04:46:16.037Z,8.57
2023-02-21T04:48:11.198Z,8.54
2023-02-21T04:50:07.411Z,8.46
2023-02-21T04:52:02.370Z,8.37
2023-02-21T04:53:58.596Z,8.38
2023-02-21T04:55:53.595Z,8.41
2023-02-21T04:57:51.215Z,8.33
2023-02-21T04:59:46.546Z,8.27
2023-02-21T05:01:41.535Z,8.25
2023-02-21T05:03:36.829Z,8.31
2023-02-21T05:05:31.932Z,8.27
2023-02-21T05:07:27.208Z,8.23
2023-02-21T05:09:22.372Z,8.16
2023-02-21T05:11:18.162Z,8.16
2023-02-21T05:13:16.073Z,8.17
2023-02-21T05:15:12.657Z,8.15
2023-02-21T05:17:07.667Z,8.13
2023-02-21T05:19:03.291Z,8.12
2023-02-21T05:20:59.001Z,8.14
2023-02-21T05:22:55.942Z,8.14
2023-02-21T05:24:53.202Z,8.14
2023-02-21T05:26:48.504Z,8.11
2023-02-21T05:28:46.946Z,8.11
2023-02-21T05:30:42.305Z,8.10
2023-02-21T05:32:37.956Z,8.19
2023-02-21T05:34:33.288Z,8.12
2023-02-21T05:36:28.985Z,8.12
2023-02-21T05:38:26.259Z,8.07
2023-02-21T05:40:22.487Z,8.08
2023-02-21T05:42:18.117Z,8.03
2023-02-21T05:44:16.011Z,8.03
2023-02-21T05:46:18.203Z,8.02
2023-02-21T05:48:13.554Z,8.01
2023-02-21T05:50:09.785Z,8.01
2023-02-21T05:52:05.248Z,7.96
2023-02-21T05:54:00.869Z,7.96
2023-02-21T05:55:56.137Z,7.94
2023-02-21T05:57:51.788Z,7.90
2023-02-21T05:59:50.284Z,7.90
2023-02-21T06:01:46.029Z,7.87
2023-02-21T06:03:41.349Z,7.86
2023-02-21T06:05:36.950Z,7.85
2023-02-21T06:07:32.230Z,7.84
2023-02-21T06:09:27.900Z,7.88
2023-02-21T06:11:28.123Z,7.86
2023-02-21T06:13:23.834Z,7.81
2023-02-21T06:15:21.705Z,7.81
2023-02-21T06:17:17.248Z,7.84
2023-02-21T06:19:14.138Z,7.77
2023-02-21T06:21:09.690Z,7.77
2023-02-21T06:23:05.185Z,7.79
2023-02-21T06:25:00.741Z,7.78
2023-02-21T06:26:56.215Z,7.81
2023-02-21T06:28:52.148Z,7.77
2023-02-21T06:30:50.168Z,7.77
2023-02-21T06:32:46.113Z,7.74
2023-02-21T06:34:41.255Z,7.74
2023-02-21T06:36:36.545Z,7.73
2023-02-21T06:38:32.093Z,7.76
2023-02-21T06:40:27.478Z,7.77
2023-02-21T06:42:22.925Z,7.79
2023-02-21T06:44:18.346Z,7.77
2023-02-21T06:46:18.894Z,7.81
2023-02-21T06:48:17.722Z,7.83
2023-02-21T06:50:12.727Z,7.86
2023-02-21T06:52:09.030Z,7.79
2023-02-21T06:54:04.018Z,7.78
2023-02-21T06:55:59.276Z,7.79
2023-02-21T06:57:54.353Z,7.73
2023-02-21T06:59:49.740Z,7.73
2023-02-21T07:01:47.570Z,7.73
2023-02-21T07:03:44.409Z,7.76
2023-02-21T07:05:39.342Z,7.77
2023-02-21T07:07:34.376Z,7.75
2023-02-21T07:09:29.761Z,7.78
2023-02-21T07:11:24.777Z,7.75
2023-02-21T07:13:22.741Z,7.76
2023-02-21T07:15:19.408Z,7.77
2023-02-21T07:17:17.409Z,7.72
2023-02-21T07:21:12.173Z,7.79
2023-02-21T07:23:07.218Z,7.76
2023-02-21T07:25:02.557Z,7.80
2023-02-21T07:26:58.387Z,7.77
2023-02-21T07:28:53.551Z,7.76
2023-02-21T07:30:49.655Z,7.74
2023-02-21T07:32:47.999Z,7.77
2023-02-21T07:34:44.020Z,7.80
2023-02-21T07:36:40.435Z,7.75
2023-02-21T07:38:35.886Z,7.77
2023-02-21T07:40:30.845Z,7.74
2023-02-21T07:42:27.045Z,7.83
2023-02-21T07:44:22.066Z,7.74
2023-02-21T07:46:19.550Z,7.71
2023-02-21T07:48:17.137Z,7.71
2023-02-21T07:50:13.259Z,7.80
2023-02-21T07:52:08.734Z,7.85
2023-02-21T07:54:04.387Z,7.78
2023-02-21T07:55:59.752Z,7.89
2023-02-21T07:57:55.124Z,7.84
2023-02-21T07:59:51.081Z,7.85
2023-02-21T08:01:49.367Z,7.83
2023-02-21T08:03:47.050Z,7.86
2023-02-21T08:05:42.590Z,7.85
2023-02-21T08:07:38.762Z,7.85
2023-02-21T08:09:36.019Z,7.90
2023-02-21T08:11:32.724Z,7.95
2023-02-21T08:13:27.723Z,7.95
2023-02-21T08:15:23.142Z,7.99
2023-02-21T08:17:18.275Z,7.98
2023-02-21T08:19:16.429Z,8.00
2023-02-21T08:21:13.369Z,8.11
2023-02-21T08:23:08.975Z,8.05
2023-02-21T08:25:03.980Z,8.04
2023-02-21T08:26:59.438Z,8.02
2023-02-21T08:28:57.612Z,8.06
2023-02-21T08:30:53.946Z,8.04
2023-02-21T08:32:51.296Z,8.10
2023-02-21T08:34:53.844Z,8.10
2023-02-21T08:36:49.134Z,8.13
2023-02-21T08:38:44.446Z,8.14
2023-02-21T08:40:39.476Z,8.12
2023-02-21T08:42:34.784Z,8.13
2023-02-21T08:44:33.284Z,8.12
2023-02-21T08:46:28.834Z,8.16
2023-02-21T08:48:23.787Z,8.15
2023-02-21T08:50:23.276Z,8.20
2023-02-21T08:52:19.356Z,8.22
2023-02-21T08:54:15.081Z,8.22
2023-02-21T08:56:11.286Z,8.21
2023-02-21T08:58:06.808Z,8.23
2023-02-21T09:00:02.042Z,8.23
2023-02-21T09:01:57.754Z,8.24
2023-02-21T09:03:53.438Z,8.28
2023-02-21T09:05:51.479Z,8.24
2023-02-21T09:07:46.515Z,8.25
2023-02-21T09:09:42.415Z,8.27
2023-02-21T09:11:37.492Z,8.31
2023-02-21T09:13:34.357Z,8.28
2023-02-21T09:15:29.523Z,8.28
2023-02-21T09:17:24.957Z,8.31
2023-02-21T09:19:21.895Z,8.30
2023-02-21T09:21:19.829Z,8.27
2023-02-21T09:23:15.435Z,8.29
2023-02-21T09:25:13.097Z,8.30
2023-02-21T09:27:08.612Z,8.31
2023-02-21T09:29:04.023Z,8.28
2023-02-21T09:30:58.980Z,8.32
2023-02-21T09:32:55.019Z,8.32
2023-02-21T09:34:50.169Z,8.32
2023-02-21T09:36:48.721Z,8.40
2023-02-21T09:38:44.765Z,8.39
2023-02-21T09:40:45.361Z,8.40
2023-02-21T09:42:41.482Z,8.39
2023-02-21T09:44:37.644Z,8.39
2023-02-21T09:46:37.622Z,8.44
2023-02-21T09:48:33.320Z,8.43
2023-02-21T09:50:31.504Z,8.45
2023-02-21T09:52:35.830Z,8.53
2023-02-21T09:54:35.644Z,8.50
2023-02-21T09:56:34.292Z,8.56
2023-02-21T09:58:30.396Z,8.57
2023-02-21T10:00:28.906Z,8.59
2023-02-21T10:02:41.228Z,8.59
2023-02-21T10:04:58.123Z,8.70
2023-02-21T10:06:59.369Z,8.72
2023-02-21T10:09:06.262Z,8.70
2023-02-21T10:11:11.790Z,8.77
2023-02-21T10:13:14.088Z,8.84
2023-02-21T10:15:24.700Z,8.86
2023-02-21T10:17:26.397Z,8.90
2023-02-21T10:19:31.386Z,8.96
2023-02-21T10:21:30.644Z,8.89
2023-02-21T10:23:31.702Z,8.93
2023-02-21T10:25:33.438Z,9.12
2023-02-21T10:27:30.353Z,9.09
2023-02-21T10:29:27.993Z,9.05
2023-02-21T10:31:32.686Z,9.07
2023-02-21T10:33:28.330Z,9.08
2023-02-21T10:35:23.664Z,9.17
2023-02-21T10:37:39.329Z,9.17
2023-02-21T10:39:44.419Z,9.22
2023-02-21T10:41:43.284Z,9.17
2023-02-21T10:43:41.210Z,9.22
2023-02-21T10:45:39.399Z,9.20
2023-02-21T10:47:50.966Z,9.33
2023-02-21T10:49:52.693Z,9.19
2023-02-21T10:51:47.646Z,9.28
2023-02-21T10:53:44.579Z,9.50
2023-02-21T10:55:41.886Z,9.46
2023-02-21T10:57:45.021Z,9.50
2023-02-21T10:59:43.968Z,9.35
2023-02-21T11:01:44.184Z,9.46
2023-02-21T11:03:40.005Z,9.54
2023-02-21T11:05:35.288Z,9.62
2023-02-21T11:07:32.004Z,9.74
2023-02-21T11:09:35.954Z,9.76
2023-02-21T11:11:37.577Z,9.88
2023-02-21T11:13:36.713Z,9.91
2023-02-21T11:15:34.114Z,9.79
2023-02-21T11:17:29.753Z,9.74
2023-02-21T11:19:25.091Z,9.83
2023-02-21T11:21:21.779Z,9.68
2023-02-21T11:23:35.000Z,9.64
2023-02-21T11:25:31.957Z,9.84
2023-02-21T11:27:27.794Z,9.88
2023-02-21T11:29:28.994Z,9.77
2023-02-21T11:31:31.217Z,9.73
2023-02-21T11:33:26.790Z,9.78
2023-02-21T11:35:28.690Z,9.93
2023-02-21T11:37:24.450Z,10.03
2023-02-21T11:39:21.634Z,10.22
2023-02-21T11:41:26.357Z,10.17
2023-02-21T11:43:26.856Z,10.08
2023-02-21T11:45:34.536Z,10.05
2023-02-21T11:47:36.779Z,9.96
2023-02-21T11:49:40.506Z,9.96
2023-02-21T11:51:42.030Z,10.02
2023-02-21T11:53:43.208Z,10.14
2023-02-21T11:55:38.918Z,10.17
2023-02-21T11:57:43.338Z,10.22
2023-02-21T11:59:48.897Z,10.17
2023-02-21T12:01:56.293Z,9.94
2023-02-21T12:04:10.637Z,9.84
2023-02-21T12:06:09.678Z,9.92
2023-02-21T12:08:25.707Z,9.79
2023-02-21T12:10:36.493Z,10.02
2023-02-21T12:12:44.661Z,10.08
2023-02-21T12:15:03.867Z,9.88
2023-02-21T12:17:22.835Z,9.91
2023-02-21T12:19:33.655Z,9.95
2023-02-21T12:21:49.752Z,9.71
2023-02-21T12:23:53.293Z,9.76
2023-02-21T12:26:00.613Z,9.78
2023-02-21T12:28:01.387Z,9.67
2023-02-21T12:30:11.594Z,10.01
2023-02-21T12:32:45.224Z,10.00
2023-02-21T12:34:55.967Z,9.73
2023-02-21T12:37:05.397Z,9.99
2023-02-21T12:39:11.920Z,10.00
2023-02-21T12:41:17.271Z,9.85
2023-02-21T12:43:32.667Z,9.89
2023-02-21T12:45:45.171Z,10.13
2023-02-21T12:47:49.352Z,10.06
2023-02-21T12:49:55.057Z,9.81
2023-02-21T12:51:59.255Z,9.89
2023-02-21T12:54:00.249Z,9.98
2023-02-21T12:56:01.116Z,10.15
2023-02-21T12:58:03.174Z,10.18
2023-02-21T13:00:12.511Z,10.06
2023-02-21T13:02:18.690Z,9.92
2023-02-21T13:04:27.325Z,9.98
2023-02-21T13:06:31.775Z,9.89
2023-02-21T13:08:32.313Z,9.99
2023-02-21T13:10:32.246Z,10.22
2023-02-21T13:12:35.961Z,10.33
2023-02-21T13:14:35.529Z,10.38
2023-02-21T13:16:31.177Z,10.43
2023-02-21T13:18:32.181Z,10.19
2023-02-21T13:20:30.066Z,10.42
2023-02-21T13:23:07.732Z,10.52
2023-02-21T13:25:17.263Z,10.30
2023-02-21T13:27:35.885Z,10.32
2023-02-21T13:29:37.427Z,10.34
2023-02-21T13:31:39.432Z,10.32
2023-02-21T13:33:44.240Z,10.27
2023-02-21T13:35:41.974Z,10.33
2023-02-21T13:37:46.476Z,10.21
2023-02-21T13:39:41.617Z,10.05
2023-02-21T13:41:43.257Z,10.17
2023-02-21T13:43:47.479Z,10.17
2023-02-21T13:45:43.461Z,10.31
2023-02-21T13:48:32.855Z,10.27
2023-02-21T13:50:49.423Z,10.16
2023-02-21T13:53:06.548Z,10.13
2023-02-21T13:55:31.410Z,10.29
2023-02-21T13:57:37.179Z,10.49
2023-02-21T13:59:38.572Z,10.42
2023-02-21T14:01:44.802Z,10.37
2023-02-21T14:03:40.127Z,10.29
2023-02-21T14:06:17.186Z,10.35
2023-02-21T14:08:17.007Z,10.36
2023-02-21T14:10:26.178Z,10.41
2023-02-21T14:12:21.399Z,10.30
2023-02-21T14:14:30.530Z,10.38
2023-02-21T14:16:28.904Z,10.45
2023-02-21T14:18:28.421Z,10.31
2023-02-21T14:20:25.947Z,10.26
2023-02-21T14:22:27.394Z,10.37
2023-02-21T14:24:25.550Z,10.40
2023-02-21T14:26:44.248Z,10.44
2023-02-21T14:29:07.484Z,10.36
2023-02-21T14:31:17.646Z,10.42
2023-02-21T14:33:25.550Z,10.47
2023-02-21T14:35:30.904Z,10.55
2023-02-21T14:37:31.972Z,10.57
2023-02-21T14:39:33.512Z,10.52
2023-02-21T14:41:54.874Z,10.36
2023-02-21T14:44:16.157Z,10.47
2023-02-21T14:46:52.127Z,10.25
2023-02-21T14:49:11.911Z,10.20
2023-02-21T14:51:35.940Z,10.17
2023-02-21T14:54:00.907Z,10.19
2023-02-21T14:56:28.883Z,10.30
2023-02-21T14:58:51.314Z,10.31
2023-02-21T15:01:00.472Z,10.30
2023-02-21T15:03:08.015Z,10.40
2023-02-21T15:05:10.717Z,10.45
2023-02-21T15:07:21.490Z,10.44
2023-02-21T15:09:22.039Z,10.56
2023-02-21T15:11:26.054Z,10.63
2023-02-21T15:13:26.643Z,10.46
2023-02-21T15:15:26.257Z,10.50
2023-02-21T15:17:24.107Z,10.58
2023-02-21T15:19:31.776Z,10.55
2023-02-21T15:21:36.853Z,10.51
2023-02-21T15:23:32.609Z,10.58
2023-02-21T15:25:27.627Z,10.51
2023-02-21T15:27:23.267Z,10.50
2023-02-21T15:29:19.644Z,10.34
2023-02-21T15:31:18.325Z,10.48
2023-02-21T15:33:19.258Z,10.43
2023-02-21T15:35:25.349Z,10.40
2023-02-21T15:37:24.781Z,10.41
2023-02-21T15:39:26.596Z,10.46
2023-02-21T15:41:30.625Z,10.47
2023-02-21T15:43:35.854Z,10.40
2023-02-21T15:45:35.320Z,10.35
2023-02-21T15:47:32.597Z,10.39
2023-02-21T15:49:31.923Z,10.34
2023-02-21T15:51:29.982Z,10.34
2023-02-21T15:53:27.046Z,10.38
2023-02-21T15:55:33.385Z,10.29
2023-02-21T15:57:30.845Z,10.32
2023-02-21T15:59:29.803Z,10.37
2023-02-21T16:01:24.940Z,10.33
2023-02-21T16:03:35.946Z,10.31
2023-02-21T16:05:33.294Z,10.36
2023-02-21T16:07:37.244Z,10.36
2023-02-21T16:09:37.093Z,10.40
2023-02-21T16:11:48.321Z,10.44
2023-02-21T16:13:43.958Z,10.45
2023-02-21T16:15:41.015Z,10.46
2023-02-21T16:17:38.469Z,10.41
2023-02-21T16:19:35.546Z,10.42
2023-02-21T16:21:32.292Z,10.42
2023-02-21T16:23:35.211Z,10.44
2023-02-21T16:25:33.587Z,10.34
2023-02-21T16:27:28.519Z,10.32
2023-02-21T16:29:23.696Z,10.29
2023-02-21T16:31:26.623Z,10.22
2023-02-21T16:33:21.697Z,10.07
2023-02-21T16:35:29.866Z,10.15
2023-02-21T16:37:28.117Z,10.19
2023-02-21T16:39:26.265Z,10.22
2023-02-21T16:41:23.432Z,10.24
2023-02-21T16:43:21.736Z,10.19
2023-02-21T16:45:19.025Z,10.22
2023-02-21T16:47:20.331Z,10.16
2023-02-21T16:49:15.425Z,10.14
2023-02-21T16:51:18.781Z,10.12
2023-02-21T16:53:15.286Z,10.05
2023-02-21T16:55:18.208Z,10.06
2023-02-21T16:57:24.058Z,10.05
2023-02-21T16:59:23.205Z,10.05
2023-02-21T17:01:30.729Z,10.01
2023-02-21T17:03:28.514Z,10.03
2023-02-21T17:05:29.725Z,9.93
2023-02-21T17:07:27.906Z,9.90
2023-02-21T17:09:25.890Z,9.91
2023-02-21T17:11:27.997Z,9.93
2023-02-21T17:13:33.612Z,9.90
2023-02-21T17:16:47.196Z,9.92
2023-02-21T17:20:21.135Z,9.91
2023-02-21T17:22:42.204Z,9.84
2023-02-21T17:24:37.696Z,9.83
2023-02-21T17:26:35.388Z,9.82
2023-02-21T17:28:42.871Z,9.75
2023-02-21T17:30:40.595Z,9.73
2023-02-21T17:32:36.471Z,9.75
2023-02-21T17:34:31.769Z,9.80
2023-02-21T17:36:29.565Z,9.84
2023-02-21T17:38:25.305Z,9.77
2023-02-21T17:40:22.556Z,9.75
2023-02-21T17:42:20.137Z,9.76
2023-02-21T17:44:15.803Z,9.70
2023-02-21T17:46:13.460Z,9.73
2023-02-21T17:48:12.237Z,9.75
2023-02-21T17:50:09.307Z,9.70
2023-02-21T17:52:06.047Z,9.76
2023-02-21T17:54:01.088Z,9.71
2023-02-21T17:55:57.196Z,9.69
2023-02-21T17:57:57.872Z,9.63
2023-02-21T17:59:53.595Z,9.66
2023-02-21T18:01:48.973Z,9.65
2023-02-21T18:03:48.113Z,9.65
2023-02-21T18:05:45.067Z,9.65
2023-02-21T18:07:41.079Z,9.62
2023-02-21T18:09:36.143Z,9.62
2023-02-21T18:11:31.771Z,9.65
2023-02-21T18:13:29.656Z,9.64
2023-02-21T18:15:28.897Z,9.61
2023-02-21T18:17:23.970Z,9.63
2023-02-21T18:19:19.443Z,9.60
2023-02-21T18:21:16.016Z,9.57
2023-02-21T18:23:11.597Z,9.57
2023-02-21T18:25:08.512Z,9.58
2023-02-21T18:27:03.919Z,9.59
2023-02-21T18:29:02.005Z,9.53
2023-02-21T18:30:59.697Z,9.54
2023-02-21T18:32:55.761Z,9.52
2023-02-21T18:35:05.991Z,9.50
2023-02-21T18:37:15.000Z,9.52
2023-02-21T18:39:10.106Z,9.49
2023-02-21T18:41:05.475Z,9.46
2023-02-21T18:43:01.062Z,9.46
2023-02-21T18:44:59.089Z,9.40
2023-02-21T18:46:55.743Z,9.37
2023-02-21T18:48:54.286Z,9.38
2023-02-21T18:50:50.039Z,9.39
2023-02-21T18:52:45.234Z,9.37
2023-02-21T18:54:47.997Z,9.28
2023-02-21T18:56:49.435Z,9.27
2023-02-21T18:58:44.525Z,9.27
2023-02-21T19:00:42.723Z,9.25
2023-02-21T19:02:37.819Z,9.27
2023-02-21T19:04:34.176Z,9.29
2023-02-21T19:06:29.213Z,9.27
2023-02-21T19:08:24.660Z,9.29
2023-02-21T19:10:22.633Z,9.30
2023-02-21T19:12:18.202Z,9.29
2023-02-21T19:14:13.252Z,9.29
2023-02-21T19:16:11.460Z,9.25
2023-02-21T19:18:06.638Z,9.27
2023-02-21T19:20:02.059Z,9.25
2023-02-21T19:21:57.186Z,9.25
2023-02-21T19:23:52.721Z,9.28
2023-02-21T19:25:48.218Z,9.30
2023-02-21T19:27:47.985Z,9.24
2023-02-21T19:29:47.368Z,9.29
2023-02-21T19:31:45.618Z,9.31
2023-02-21T19:33:40.864Z,9.25
2023-02-21T19:35:37.913Z,9.26
2023-02-21T19:37:33.229Z,9.25
2023-02-21T19:39:28.951Z,9.28
2023-02-21T19:41:24.488Z,9.24
2023-02-21T19:43:20.094Z,9.20
2023-02-21T19:45:18.797Z,9.20
2023-02-21T19:47:17.310Z,9.16
2023-02-21T19:49:17.992Z,9.19
2023-02-21T19:51:17.389Z,9.19
2023-02-21T19:53:24.120Z,9.10
2023-02-21T19:55:23.628Z,9.11
2023-02-21T19:57:18.955Z,9.17
2023-02-21T19:59:14.802Z,9.11
2023-02-21T20:01:10.879Z,9.13
2023-02-21T20:03:08.993Z,9.12
2023-02-21T20:05:04.124Z,9.16
2023-02-21T20:06:59.841Z,9.12
2023-02-21T20:08:54.833Z,9.13
2023-02-21T20:10:50.137Z,9.15
2023-02-21T20:12:45.216Z,9.13
2023-02-21T20:14:45.988Z,9.13
2023-02-21T20:16:42.216Z,9.11
2023-02-21T20:18:40.256Z,9.06
2023-02-21T20:20:35.217Z,9.11
2023-02-21T20:22:34.018Z,9.12
2023-02-21T20:24:29.091Z,9.10
2023-02-21T20:26:25.870Z,9.06
2023-02-21T20:28:20.974Z,9.09
2023-02-21T20:30:17.155Z,9.06
2023-02-21T20:32:12.240Z,9.08
2023-02-21T20:34:10.190Z,8.99
2023-02-21T20:36:05.178Z,9.00
2023-02-21T20:38:05.364Z,8.97
2023-02-21T20:40:02.071Z,8.96
2023-02-21T20:41:58.124Z,8.95
2023-02-21T20:43:53.208Z,8.93
2023-02-21T20:45:48.658Z,8.91
2023-02-21T20:47:43.663Z,8.90
2023-02-21T20:49:44.845Z,8.93
2023-02-21T20:51:41.049Z,8.98
2023-02-21T20:53:36.720Z,8.97
2023-02-21T20:55:32.404Z,8.92
2023-02-21T20:57:27.888Z,8.91
2023-02-21T20:59:26.610Z,8.85
2023-02-21T21:01:21.713Z,8.80
2023-02-21T21:03:20.724Z,8.85
2023-02-21T21:05:18.708Z,8.92
2023-02-21T21:07:19.701Z,8.92
2023-02-21T21:09:19.322Z,8.85
2023-02-21T21:11:15.058Z,8.83
2023-02-21T21:13:19.451Z,8.83
2023-02-21T21:15:16.302Z,8.84
2023-02-21T21:17:19.440Z,8.87
2023-02-21T21:19:16.081Z,8.89
2023-02-21T21:21:13.883Z,8.87
2023-02-21T21:23:09.984Z,8.84
2023-02-21T21:25:05.610Z,8.84
2023-02-21T21:27:07.615Z,8.74
2023-02-21T21:29:07.243Z,8.77
2023-02-21T21:31:02.664Z,8.63
2023-02-21T21:32:57.683Z,8.59
2023-02-21T21:35:06.549Z,8.44
2023-02-21T21:37:05.435Z,8.29
2023-02-21T21:39:00.782Z,8.24
2023-02-21T21:40:56.942Z,8.39
2023-02-21T21:42:53.703Z,8.24
2023-02-21T21:44:56.200Z,8.28
2023-02-21T21:46:52.862Z,8.25
2023-02-21T21:48:47.971Z,8.35
2023-02-21T21:50:44.707Z,8.27
2023-02-21T21:52:42.667Z,8.17
2023-02-21T21:54:40.506Z,8.16
2023-02-21T21:56:35.881Z,8.13
2023-02-21T21:58:56.298Z,8.30
2023-02-21T22:01:34.667Z,8.16
2023-02-21T22:03:42.696Z,8.23
2023-02-21T22:05:38.783Z,8.11
2023-02-21T22:07:36.694Z,8.15
2023-02-21T22:09:35.439Z,8.18
2023-02-21T22:11:30.733Z,8.03
2023-02-21T22:13:29.211Z,8.00
2023-02-21T22:15:30.176Z,8.15
2023-02-21T22:17:25.174Z,8.08
2023-02-21T22:19:22.066Z,8.11
2023-02-21T22:21:17.689Z,8.19
2023-02-21T22:23:13.100Z,8.24
2023-02-21T22:25:13.163Z,8.20
2023-02-21T22:27:08.466Z,8.27
2023-02-21T22:29:05.990Z,8.20
2023-02-21T22:31:04.936Z,8.24
2023-02-21T22:32:59.876Z,8.21
2023-02-21T22:34:55.190Z,8.16
2023-02-21T22:36:50.130Z,8.07
2023-02-21T22:38:48.644Z,8.07
2023-02-21T22:40:47.066Z,8.02
2023-02-21T22:42:42.015Z,7.98
2023-02-21T22:44:37.625Z,8.07
2023-02-21T22:46:42.121Z,8.07
2023-02-21T22:48:37.578Z,8.05
2023-02-21T22:50:37.060Z,8.09
2023-02-21T22:52:32.583Z,8.07
2023-02-21T22:54:31.480Z,8.02
2023-02-21T22:56:38.207Z,8.01
2023-02-21T22:58:33.417Z,8.09
2023-02-21T23:00:33.139Z,8.07
2023-02-21T23:02:28.833Z,7.93
2023-02-21T23:04:27.888Z,8.00
2023-02-21T23:06:23.758Z,8.00
2023-02-21T23:08:21.079Z,8.05
2023-02-21T23:10:16.611Z,8.03
2023-02-21T23:12:15.288Z,8.02
2023-02-21T23:14:10.537Z,8.03
2023-02-21T23:16:05.822Z,8.16
2023-02-21T23:18:00.840Z,8.25
2023-02-21T23:19:56.111Z,8.31
2023-02-21T23:21:52.631Z,8.31
2023-02-21T23:23:47.962Z,8.32
2023-02-21T23:25:43.442Z,8.33
2023-02-21T23:27:40.945Z,8.25
2023-02-21T23:29:36.215Z,8.24
2023-02-21T23:31:31.133Z,8.26
2023-02-21T23:33:28.438Z,8.32
2023-02-21T23:35:23.776Z,8.33
2023-02-21T23:37:19.005Z,8.26
2023-02-21T23:39:19.504Z,8.17
2023-02-21T23:41:17.185Z,8.15
2023-02-21T23:43:31.845Z,8.20
2023-02-21T23:45:28.889Z,8.29
2023-02-21T23:47:23.839Z,8.29
2023-02-21T23:49:19.178Z,8.31
2023-02-21T23:51:14.749Z,8.32
2023-02-21T23:53:10.196Z,8.34
2023-02-21T23:55:05.581Z,8.32
2023-02-21T23:57:01.727Z,8.31
2023-02-21T23:59:16.655Z,8.27
